Time;durP1;ratioP1;P1;durP2;ratioP2;P2;SDS_P1;SDS_P2;PMS_P1;PMS_P2;Temp;Humidity;BMP_temperature;BMP_pressure;BME280_temperature;BME280_humidity;BME280_pressure;Samples;Min_cycle;Max_cycle;Signal;HPM_P1;HPM_P2
2022/08/18 00:02:14;;;;;;;10.10;7.50;;;;;;;23.89;55.48;99606.66;5130067;27;20027;-28
2022/08/18 00:04:41;;;;;;;11.45;7.47;;;;;;;23.76;56.10;99609.19;5129882;27;20037;-31
2022/08/18 00:07:15;;;;;;;10.30;7.20;;;;;;;23.79;56.01;99608.56;5129964;27;20031;-30
2022/08/18 00:09:41;;;;;;;9.45;7.65;;;;;;;23.39;57.78;99597.72;5129999;27;20027;-31
2022/08/18 00:12:21;;;;;;;9.20;7.63;;;;;;;23.16;58.60;99607.09;5129572;27;20031;-32
2022/08/18 00:14:47;;;;;;;10.13;7.30;;;;;;;23.41;57.62;99608.28;5131467;27;20027;-28
2022/08/18 00:17:13;;;;;;;13.13;7.95;;;;;;;23.24;58.47;99612.56;5131264;27;20027;-32
2022/08/18 00:19:39;;;;;;;17.02;7.80;;;;;;;23.41;58.12;99608.28;5129969;27;20023;-28
2022/08/18 00:22:06;;;;;;;12.20;7.95;;;;;;;23.20;58.48;99603.41;5131122;27;20172;-34
2022/08/18 00:24:32;;;;;;;16.27;7.55;;;;;;;23.29;58.08;99600.72;5129351;27;20258;-27
2022/08/18 00:26:57;;;;;;;12.00;7.78;;;;;;;22.95;58.82;99574.97;5130946;27;20042;-32
2022/08/18 00:29:23;;;;;;;12.00;7.30;;;;;;;23.09;58.34;99604.00;5130955;27;20019;-28
2022/08/18 00:31:49;;;;;;;12.50;8.65;;;;;;;23.15;58.60;99611.72;5130920;27;20049;-28
2022/08/18 00:34:15;;;;;;;10.98;7.57;;;;;;;22.99;58.86;99596.91;5130864;27;20106;-27
2022/08/18 00:36:40;;;;;;;13.07;8.35;;;;;;;22.79;59.17;99588.16;5130646;27;20035;-29
2022/08/18 00:39:06;;;;;;;11.40;8.02;;;;;;;22.53;60.45;99603.53;5130608;27;20031;-29
2022/08/18 00:41:32;;;;;;;12.95;7.82;;;;;;;22.38;61.71;99605.50;5130872;27;20027;-28
2022/08/18 00:43:58;;;;;;;10.05;7.85;;;;;;;22.45;61.49;99608.59;5129158;27;20029;-30
2022/08/18 00:46:30;;;;;;;11.93;8.32;;;;;;;22.55;62.25;99604.00;5130557;27;20070;-28
2022/08/18 00:48:56;;;;;;;11.23;7.45;;;;;;;22.37;62.72;99589.50;5128956;27;20024;-28
2022/08/18 00:51:32;;;;;;;12.20;8.50;;;;;;;22.61;62.44;99595.41;5129092;27;20588;-29
2022/08/18 00:54:09;;;;;;;15.02;8.75;;;;;;;22.62;62.72;99607.91;5128843;27;20575;-28
2022/08/18 00:56:42;;;;;;;11.35;9.15;;;;;;;22.52;62.89;99602.72;5130147;27;20102;-28
2022/08/18 00:59:30;;;;;;;12.43;8.88;;;;;;;22.21;64.27;99583.59;5128795;27;20031;-30
2022/08/18 01:02:01;;;;;;;10.98;9.10;;;;;;;22.29;64.45;99598.41;5128756;27;20027;-28
2022/08/18 01:04:40;;;;;;;11.68;8.13;;;;;;;22.04;64.92;99574.22;5128611;27;20489;-29
2022/08/18 01:07:28;;;;;;;10.82;9.48;;;;;;;22.29;64.42;99601.91;5130173;27;20027;-29
2022/08/18 01:09:57;;;;;;;10.80;9.23;;;;;;;22.46;63.25;99579.50;5127614;27;20825;-30
2022/08/18 01:12:23;;;;;;;12.98;9.10;;;;;;;22.30;63.60;99589.16;5129746;27;20058;-29
2022/08/18 01:14:48;;;;;;;12.10;9.45;;;;;;;22.54;63.11;99599.72;5129935;27;20122;-27
2022/08/18 01:22:48;;;;;;;9.43;7.28;;;;;;;22.66;60.29;99616.25;5129640;27;20091;-32
2022/08/18 01:28:04;;;;;;;11.68;8.63;;;;;;;22.95;58.68;99612.25;5130170;27;20076;-30
2022/08/18 01:30:33;;;;;;;14.90;8.40;;;;;;;23.02;58.49;99593.59;5129597;27;20024;-28
2022/08/18 01:32:59;;;;;;;10.98;8.50;;;;;;;23.15;57.37;99606.28;5128214;27;20640;-31
2022/08/18 01:35:26;;;;;;;11.63;8.35;;;;;;;23.27;57.65;99603.78;5129714;27;20110;-29
2022/08/18 01:37:52;;;;;;;14.20;7.97;;;;;;;23.10;58.75;99602.91;5128258;27;20027;-30
2022/08/18 01:40:20;;;;;;;12.15;8.40;;;;;;;22.84;60.63;99601.66;5128507;27;20414;-28
2022/08/18 01:42:46;;;;;;;13.02;8.73;;;;;;;22.45;61.14;99580.63;5128154;27;20067;-31
2022/08/18 01:45:15;;;;;;;16.23;9.10;;;;;;;22.64;60.93;99594.81;5129717;27;20070;-28
2022/08/18 01:47:41;;;;;;;12.48;8.40;;;;;;;22.37;62.79;99598.47;5127805;27;20092;-30
2022/08/18 01:50:09;;;;;;;12.05;8.93;;;;;;;22.22;62.45;99596.09;5129119;27;20039;-29
2022/08/18 01:52:35;;;;;;;10.82;8.27;;;;;;;22.03;62.95;99582.69;5127687;27;20035;-30
2022/08/18 01:55:02;;;;;;;15.30;8.98;;;;;;;22.13;62.67;99598.75;5129292;27;20023;-28
2022/08/18 01:57:28;;;;;;;14.43;9.35;;;;;;;22.10;62.49;99577.63;5127858;27;20511;-29
2022/08/18 01:59:54;;;;;;;12.07;8.73;;;;;;;22.30;62.16;99600.81;5129044;27;20023;-32
2022/08/18 02:02:24;;;;;;;11.00;8.68;;;;;;;22.27;61.88;99583.22;5128882;27;20038;-31
2022/08/18 02:05:00;;;;;;;12.35;8.32;;;;;;;22.29;62.53;99606.53;5127686;27;20051;-28
2022/08/18 02:07:25;;;;;;;12.77;9.38;;;;;;;22.16;62.36;99581.81;5127697;27;20031;-29
2022/08/18 02:09:51;;;;;;;15.23;8.63;;;;;;;22.23;62.79;99603.09;5128849;27;20029;-28
2022/08/18 02:12:16;;;;;;;12.98;8.52;;;;;;;22.19;62.89;99599.41;5128865;27;20102;-28
2022/08/18 02:14:42;;;;;;;13.00;9.60;;;;;;;22.07;64.21;99605.41;5128518;27;20023;-30
2022/08/18 02:17:11;;;;;;;14.20;9.48;;;;;;;22.39;62.10;99588.09;5127248;27;20118;-31
2022/08/18 02:19:40;;;;;;;15.65;8.93;;;;;;;22.98;60.72;99590.66;5127398;27;20031;-29
2022/08/18 02:22:06;;;;;;;12.60;8.98;;;;;;;22.79;60.85;99604.47;5127345;27;20043;-29
2022/08/18 02:24:32;;;;;;;14.38;8.95;;;;;;;22.62;61.52;99610.63;5126877;27;20045;-30
2022/08/18 02:26:58;;;;;;;15.30;9.77;;;;;;;22.23;62.48;99603.09;5128902;27;20031;-30
2022/08/18 02:29:23;;;;;;;12.45;9.15;;;;;;;22.05;63.84;99615.78;5127072;27;20155;-30
2022/08/18 02:31:49;;;;;;;10.15;8.73;;;;;;;21.93;63.85;99613.56;5127172;27;20051;-29
2022/08/18 02:34:15;;;;;;;13.27;8.77;;;;;;;22.02;63.35;99609.00;5128682;27;20068;-28
2022/08/18 02:36:41;;;;;;;14.43;8.60;;;;;;;21.92;64.14;99575.88;5126908;27;20045;-32
2022/08/18 02:39:07;;;;;;;15.05;9.52;;;;;;;22.62;62.57;99605.19;5128725;27;20474;-28
2022/08/18 02:41:32;;;;;;;16.08;9.10;;;;;;;22.41;62.92;99595.94;5128398;27;20027;-29
2022/08/18 02:43:58;;;;;;;13.20;8.93;;;;;;;22.39;63.61;99601.69;5126742;27;20030;-36
2022/08/18 02:46:25;;;;;;;14.57;8.77;;;;;;;22.71;62.08;99569.91;5127744;27;20050;-30
2022/08/18 02:48:55;;;;;;;12.90;8.82;;;;;;;22.86;61.19;99588.53;5128459;27;20072;-29
2022/08/18 02:51:22;;;;;;;13.88;8.50;;;;;;;23.04;60.74;99594.06;5128429;27;20538;-29
2022/08/18 02:53:47;;;;;;;12.05;8.35;;;;;;;23.22;60.31;99601.19;5109791;27;20613;-29
2022/08/18 02:56:23;;;;;;;12.20;8.88;;;;;;;23.21;59.75;99606.94;5128427;27;20031;-28
2022/08/18 02:58:54;;;;;;;9.05;7.88;;;;;;;22.51;62.15;99575.84;5126617;27;20035;-31
2022/08/18 03:01:22;;;;;;;11.80;8.95;;;;;;;22.51;61.36;99608.47;5127042;27;20497;-28
2022/08/18 03:03:49;;;;;;;14.18;9.18;;;;;;;22.30;61.79;99622.53;5127048;27;20722;-28
2022/08/18 03:06:15;;;;;;;14.23;9.07;;;;;;;22.36;63.70;99607.72;5126784;27;20414;-29
2022/08/18 03:08:41;;;;;;;14.95;8.63;;;;;;;22.49;63.17;99616.13;5126285;27;20027;-29
2022/08/18 03:11:06;;;;;;;16.92;9.82;;;;;;;22.49;63.63;99599.81;5126540;27;20094;-30
2022/08/18 03:13:32;;;;;;;12.88;8.48;;;;;;;22.69;62.72;99622.97;5127934;27;20515;-30
2022/08/18 03:15:58;;;;;;;14.23;8.32;;;;;;;22.99;61.29;99605.88;5127999;27;20398;-29
2022/08/18 03:18:24;;;;;;;13.88;8.70;;;;;;;23.03;61.22;99608.81;5127358;27;20083;-29
2022/08/18 03:20:49;;;;;;;11.95;8.20;;;;;;;22.83;61.10;99616.34;5126459;28;20035;-31
2022/08/18 03:23:15;;;;;;;12.10;7.68;;;;;;;22.53;62.32;99608.97;5127773;27;20027;-29
2022/08/18 03:25:47;;;;;;;13.63;7.97;;;;;;;22.32;62.12;99601.31;5125374;28;20382;-35
2022/08/18 03:28:14;;;;;;;10.98;7.00;;;;;;;22.30;62.10;99614.41;5125425;28;20118;-31
2022/08/18 03:30:39;;;;;;;14.60;7.77;;;;;;;22.46;61.33;99628.41;5125380;28;20871;-28
2022/08/18 03:33:05;;;;;;;9.93;7.20;;;;;;;22.33;61.65;99613.78;5127502;27;20034;-28
2022/08/18 03:35:33;;;;;;;15.18;8.07;;;;;;;22.52;61.05;99615.53;5131079;27;20019;-28
2022/08/18 03:37:59;;;;;;;12.63;8.52;;;;;;;22.08;61.78;99613.22;5129629;27;20058;-28
2022/08/18 03:40:24;;;;;;;14.75;8.98;;;;;;;21.82;62.00;99617.59;5129993;27;20907;-28
2022/08/18 03:42:50;;;;;;;20.98;9.60;;;;;;;21.64;63.90;99622.88;5132161;27;20030;-28
2022/08/18 03:45:15;;;;;;;16.65;9.35;;;;;;;21.50;65.22;99608.53;5132310;27;20047;-28
2022/08/18 03:47:41;;;;;;;15.45;9.50;;;;;;;21.52;65.02;99619.88;5131724;27;20134;-29
2022/08/18 03:50:07;;;;;;;13.75;8.82;;;;;;;21.17;64.93;99608.59;5130292;27;20646;-29
2022/08/18 03:52:32;;;;;;;15.48;9.73;;;;;;;20.91;65.20;99610.19;5131407;27;20031;-32
2022/08/18 03:54:58;;;;;;;14.02;8.98;;;;;;;20.96;65.90;99626.34;5131521;27;20029;-30
2022/08/18 03:57:24;;;;;;;15.00;9.98;;;;;;;20.99;67.20;99620.34;5131436;27;20027;-28
2022/08/18 03:59:49;;;;;;;15.90;8.27;;;;;;;21.20;65.90;99626.16;5130385;27;20478;-28
2022/08/18 04:02:15;;;;;;;15.70;9.00;;;;;;;21.33;65.36;99624.56;5131520;27;20084;-28
2022/08/18 04:04:41;;;;;;;15.25;9.90;;;;;;;21.46;65.32;99631.94;5131320;27;20059;-29
2022/08/18 04:07:08;;;;;;;15.93;9.50;;;;;;;21.48;65.57;99637.06;5131234;27;20058;-28
2022/08/18 04:09:35;;;;;;;13.13;8.77;;;;;;;21.89;64.28;99628.06;5129578;27;20038;-28
2022/08/18 04:12:11;;;;;;;10.47;9.13;;;;;;;21.89;63.79;99620.72;5129815;27;20136;-29
2022/08/18 04:14:38;;;;;;;12.70;9.52;;;;;;;22.19;63.07;99642.84;5129971;27;20042;-30
2022/08/18 04:17:04;;;;;;;12.63;9.70;;;;;;;22.54;62.89;99651.34;5131524;27;20130;-30
2022/08/18 04:19:32;;;;;;;12.68;9.07;;;;;;;22.45;62.72;99653.97;5129786;27;20039;-28
2022/08/18 04:21:57;;;;;;;12.27;8.02;;;;;;;22.55;62.53;99642.06;5131003;27;20031;-28
2022/08/18 04:24:25;;;;;;;11.85;8.63;;;;;;;22.81;61.52;99662.06;5131024;27;20042;-33
2022/08/18 04:26:50;;;;;;;11.07;8.60;;;;;;;22.92;61.13;99640.06;5131402;27;20106;-31
2022/08/18 04:29:19;;;;;;;13.02;9.52;;;;;;;23.13;60.38;99652.03;5129474;27;20023;-32
2022/08/18 04:31:45;;;;;;;12.10;9.00;;;;;;;23.09;60.71;99656.50;5129903;27;20413;-28
2022/08/18 04:34:11;;;;;;;14.68;9.48;;;;;;;23.12;60.74;99650.41;5130929;27;20490;-29
2022/08/18 04:36:37;;;;;;;13.38;8.88;;;;;;;23.23;59.96;99649.03;5130500;27;20031;-30
2022/08/18 04:39:05;;;;;;;13.18;8.60;;;;;;;23.39;59.44;99637.72;5131235;27;20061;-28
2022/08/18 04:41:32;;;;;;;17.38;9.20;;;;;;;23.51;59.46;99661.63;5130973;27;20106;-31
2022/08/18 04:43:59;;;;;;;15.07;9.50;;;;;;;23.62;59.70;99663.75;5128444;27;20042;-29
2022/08/18 04:46:26;;;;;;;14.63;9.48;;;;;;;23.62;59.37;99661.03;5130027;27;20051;-28
2022/08/18 04:48:57;;;;;;;11.57;8.65;;;;;;;23.46;60.41;99655.22;5131696;27;20062;-30
2022/08/18 04:51:24;;;;;;;14.73;10.18;;;;;;;23.49;60.65;99644.81;5130406;27;20478;-29
2022/08/18 04:53:49;;;;;;;13.38;9.57;;;;;;;23.81;59.83;99640.94;5129274;27;20126;-29
2022/08/18 04:56:29;;;;;;;12.68;9.10;;;;;;;24.13;58.55;99661.47;5131040;27;20177;-29
2022/08/18 04:58:59;;;;;;;12.93;9.10;;;;;;;24.18;57.90;99657.78;5130735;27;20027;-28
2022/08/18 05:01:28;;;;;;;13.77;8.70;;;;;;;24.22;57.15;99658.75;5129043;27;20624;-29
2022/08/18 05:03:56;;;;;;;12.65;8.68;;;;;;;24.22;57.27;99654.09;5128971;27;20034;-35
2022/08/18 05:06:24;;;;;;;11.35;8.23;;;;;;;24.28;57.85;99665.66;5128965;27;20031;-28
2022/08/18 05:09:04;;;;;;;15.95;8.57;;;;;;;24.15;57.90;99658.41;5130397;27;20054;-28
2022/08/18 05:11:34;;;;;;;13.35;8.82;;;;;;;24.02;58.86;99655.53;5130250;27;20030;-30
2022/08/18 05:14:06;;;;;;;10.95;8.35;;;;;;;24.23;58.68;99668.50;5130288;27;20065;-32
2022/08/18 05:16:34;;;;;;;11.98;8.82;;;;;;;24.17;58.31;99650.72;5128761;27;20039;-29
2022/08/18 05:19:03;;;;;;;11.40;8.32;;;;;;;24.30;58.39;99668.84;5128843;27;20123;-28
2022/08/18 05:21:29;;;;;;;17.02;8.90;;;;;;;24.06;59.11;99661.13;5128672;27;20058;-29
2022/08/18 05:23:54;;;;;;;13.63;9.15;;;;;;;24.32;58.40;99663.88;5128575;27;20031;-32
2022/08/18 05:26:20;;;;;;;10.25;8.75;;;;;;;24.42;58.38;99669.00;5129811;27;20031;-34
2022/08/18 05:28:47;;;;;;;10.00;8.23;;;;;;;24.41;58.21;99651.03;5129604;27;20019;-31
2022/08/18 05:31:18;;;;;;;11.05;7.65;;;;;;;24.65;57.97;99672.38;5128651;27;20027;-31
2022/08/18 05:33:46;;;;;;;11.10;7.68;;;;;;;24.84;57.49;99666.56;5128262;27;20019;-29
2022/08/18 05:36:14;;;;;;;10.93;7.88;;;;;;;25.19;56.41;99666.50;5129800;27;20027;-28
2022/08/18 05:39:07;;;;;;;11.65;7.75;;;;;;;25.26;54.92;99664.09;5129448;27;20031;-30
2022/08/18 05:41:40;;;;;;;10.70;7.00;;;;;;;25.28;55.03;99657.50;5128308;27;20107;-29
2022/08/18 05:44:11;;;;;;;9.98;7.40;;;;;;;25.53;54.42;99666.69;5111168;27;20099;-29
2022/08/18 05:46:44;;;;;;;12.20;8.13;;;;;;;25.40;54.77;99668.53;5129369;27;20023;-29
2022/08/18 05:49:11;;;;;;;8.77;7.03;;;;;;;25.43;54.78;99648.75;5129892;27;20089;-29
2022/08/18 05:51:49;;;;;;;9.65;7.28;;;;;;;25.67;54.16;99670.78;5129708;27;20030;-29
2022/08/18 05:57:05;;;;;;;12.20;7.22;;;;;;;25.94;54.97;99671.47;5128189;27;20106;-30
2022/08/18 05:59:34;;;;;;;11.32;7.82;;;;;;;26.30;53.15;99677.50;5129310;27;20062;-31
2022/08/18 06:02:22;;;;;;;9.68;7.30;;;;;;;26.43;54.00;99677.19;5129044;27;20115;-30
2022/08/18 06:04:54;;;;;;;9.38;6.95;;;;;;;26.59;52.81;99677.41;5119026;27;20387;-29
2022/08/18 06:07:29;;;;;;;15.50;7.65;;;;;;;26.75;52.94;99676.81;5127741;27;20474;-28
2022/08/18 06:09:54;;;;;;;9.18;7.30;;;;;;;26.78;51.67;99655.03;5129081;27;20439;-28
2022/08/18 06:12:40;;;;;;;10.65;6.68;;;;;;;27.30;50.53;99672.03;5127283;27;20031;-32
2022/08/18 06:15:21;;;;;;;9.32;6.20;;;;;;;27.40;49.00;99657.88;5129223;27;20027;-34
2022/08/18 06:18:11;;;;;;;11.82;6.15;;;;;;;27.59;48.64;99671.03;5129112;27;20031;-29
2022/08/18 06:21:10;;;;;;;7.85;6.03;;;;;;;27.57;47.64;99665.88;5128586;27;20027;-30
2022/08/18 06:23:45;;;;;;;9.20;5.43;;;;;;;27.64;46.61;99674.34;5127399;27;20034;-31
2022/08/18 06:26:33;;;;;;;9.55;5.40;;;;;;;27.91;46.28;99677.53;5127432;27;20138;-32
2022/08/18 06:29:26;;;;;;;9.40;6.00;;;;;;;28.11;45.45;99692.22;5128540;27;20030;-32
2022/08/18 06:32:00;;;;;;;8.73;5.47;;;;;;;28.22;45.37;99681.59;5128908;27;20054;-31
2022/08/18 06:34:39;;;;;;;8.68;5.97;;;;;;;28.40;44.72;99676.59;5127132;27;20050;-29
2022/08/18 06:37:26;;;;;;;7.82;5.32;;;;;;;28.42;44.37;99669.63;5127197;27;20031;-29
2022/08/18 06:39:52;;;;;;;6.75;5.50;;;;;;;28.59;43.95;99689.72;5128924;27;20080;-29
2022/08/18 06:42:25;;;;;;;7.47;6.05;;;;;;;28.54;43.94;99687.22;5127148;27;20039;-31
2022/08/18 06:44:56;;;;;;;10.23;6.45;;;;;;;28.52;45.56;99673.03;5128653;27;20023;-29
2022/08/18 06:47:27;;;;;;;8.50;5.47;;;;;;;28.72;43.85;99683.03;5126916;27;20031;-32
2022/08/18 06:49:59;;;;;;;9.15;6.30;;;;;;;28.77;44.82;99682.78;5128110;27;20287;-35
2022/08/18 06:52:24;;;;;;;9.75;6.20;;;;;;;28.73;44.53;99684.63;5126685;27;20027;-30
2022/08/18 06:54:51;;;;;;;10.23;5.90;;;;;;;29.03;43.53;99692.47;5128220;27;20027;-30
2022/08/18 06:57:33;;;;;;;7.38;5.70;;;;;;;28.99;43.54;99686.91;5126785;27;20474;-34
2022/08/18 07:00:05;;;;;;;8.63;5.60;;;;;;;28.98;43.56;99673.50;5128260;27;20027;-29
2022/08/18 07:02:40;;;;;;;7.95;5.60;;;;;;;29.04;43.53;99683.88;5126039;27;20023;-28
2022/08/18 07:05:19;;;;;;;9.75;6.72;;;;;;;29.14;42.99;99684.56;5126777;27;20836;-29
2022/08/18 07:07:46;;;;;;;10.60;5.82;;;;;;;29.45;42.58;99681.00;5127294;27;20633;-30
2022/08/18 07:10:14;;;;;;;11.88;6.50;;;;;;;29.54;42.01;99673.34;5126491;27;20027;-28
2022/08/18 07:12:40;;;;;;;9.25;6.38;;;;;;;29.57;42.30;99680.91;5127491;27;20554;-33
2022/08/18 07:15:06;;;;;;;12.25;7.40;;;;;;;29.76;42.61;99676.66;5127662;27;20106;-29
2022/08/18 07:17:40;;;;;;;12.27;6.65;;;;;;;29.99;41.99;99680.28;5126524;27;20117;-29
2022/08/18 07:20:21;;;;;;;9.63;5.50;;;;;;;30.09;41.38;99670.69;5126624;27;20041;-29
2022/08/18 07:22:51;;;;;;;11.35;6.40;;;;;;;29.97;41.60;99668.84;5126439;28;20084;-30
2022/08/18 07:25:29;;;;;;;11.10;6.03;;;;;;;30.10;40.40;99676.97;5126462;28;20042;-33
2022/08/18 07:27:55;;;;;;;15.05;7.65;;;;;;;30.37;40.34;99670.53;5126470;27;20494;-30
2022/08/18 07:30:20;;;;;;;10.50;6.70;;;;;;;30.75;39.94;99674.41;5126043;28;20069;-29
2022/08/18 07:33:20;;;;;;;9.43;6.65;;;;;;;30.82;39.19;99652.50;5127559;27;20545;-35
2022/08/18 07:35:49;;;;;;;14.52;8.60;;;;;;;30.94;38.72;99661.81;5126297;27;20038;-30
2022/08/18 07:38:30;;;;;;;10.07;6.18;;;;;;;31.26;38.96;99672.56;5126094;28;20031;-30
2022/08/18 07:41:10;;;;;;;9.82;5.78;;;;;;;31.40;39.26;99654.28;5127864;27;20031;-32
2022/08/18 07:43:52;;;;;;;10.68;5.82;;;;;;;31.35;39.05;99662.09;5127558;27;20174;-30
2022/08/18 07:46:42;;;;;;;8.55;5.70;;;;;;;31.39;38.09;99682.22;5125832;27;20030;-32
2022/08/18 07:49:09;;;;;;;8.60;5.40;;;;;;;31.46;37.61;99668.59;5119350;28;20718;-29
2022/08/18 07:51:43;;;;;;;;;;;;;;;31.31;37.65;99672.25;5126518;28;20020;-31
2022/08/18 07:54:11;;;;;;;8.23;5.40;;;;;;;31.48;37.08;99671.75;5127631;28;19914;-30
2022/08/18 07:56:43;;;;;;;9.35;5.80;;;;;;;31.72;37.47;99667.00;5127030;27;20589;-30
2022/08/18 07:59:38;;;;;;;9.95;5.47;;;;;;;31.65;37.42;99662.19;5127592;27;20106;-30
2022/08/18 08:02:18;;;;;;;8.50;5.20;;;;;;;31.45;37.95;99667.00;5126207;27;20045;-33
2022/08/18 08:04:46;;;;;;;9.10;5.43;;;;;;;31.70;36.98;99661.06;5124271;27;20110;-30
2022/08/18 08:07:16;;;;;;;6.40;5.25;;;;;;;31.88;35.84;99662.13;5109092;27;20024;-31
2022/08/18 08:10:20;;;;;;;11.80;5.32;;;;;;;31.94;35.50;99666.16;5115628;27;20049;-29
2022/08/18 08:12:55;;;;;;;9.80;5.38;;;;;;;32.28;34.98;99663.44;5126043;28;20031;-29
2022/08/18 08:15:45;;;;;;;7.93;5.40;;;;;;;32.27;34.55;99661.88;5125572;27;20501;-33
2022/08/18 08:18:13;;;;;;;14.60;5.80;;;;;;;32.58;35.07;99651.59;5126027;27;20055;-31
2022/08/18 08:20:49;;;;;;;8.45;4.97;;;;;;;32.75;34.68;99641.91;5131023;27;20541;-31
2022/08/18 08:23:54;;;;;;;7.03;5.22;;;;;;;32.76;35.03;99644.28;5129590;27;20734;-30
2022/08/18 08:27:01;;;;;;;8.23;5.25;;;;;;;32.64;34.11;99636.28;5131165;27;20080;-29
2022/08/18 08:29:43;;;;;;;;;;;;;;;33.03;33.67;99644.16;5131271;27;20047;-32
2022/08/18 08:32:30;;;;;;;6.35;5.00;;;;;;;33.27;32.96;99644.78;5130986;27;19915;-30
2022/08/18 08:34:58;;;;;;;;;;;;;;;33.61;33.23;99651.75;5131173;27;20116;-29
2022/08/18 08:37:45;;;;;;;6.55;5.15;;;;;;;33.66;31.27;99655.34;5130938;27;19919;-31
2022/08/18 08:40:36;;;;;;;7.72;4.97;;;;;;;33.43;32.56;99635.03;5129324;27;20063;-28
2022/08/18 08:43:07;;;;;;;8.02;4.93;;;;;;;33.84;32.56;99636.88;5129576;27;20683;-28
2022/08/18 08:45:37;;;;;;;6.95;4.63;;;;;;;33.99;31.64;99646.81;5129098;27;20031;-29
2022/08/18 08:48:06;;;;;;;9.30;4.70;;;;;;;33.90;32.31;99635.34;5128998;27;20027;-32
2022/08/18 08:50:44;;;;;;;7.72;5.32;;;;;;;34.13;31.53;99620.41;5128713;27;20095;-31
2022/08/18 08:53:25;;;;;;;7.82;4.82;;;;;;;34.29;31.31;99631.97;5128927;27;20399;-35
2022/08/18 08:55:56;;;;;;;8.07;5.22;;;;;;;34.21;32.31;99613.75;5130527;27;20031;-29
2022/08/18 08:58:28;;;;;;;9.25;4.63;;;;;;;34.48;31.11;99628.06;5128907;27;20038;-28
2022/08/18 09:00:55;;;;;;;8.05;4.50;;;;;;;34.54;29.74;99628.47;5129042;27;20202;-29
2022/08/18 09:03:45;;;;;;;7.15;4.80;;;;;;;34.55;29.85;99624.50;5128594;27;20035;-29
2022/08/18 09:06:29;;;;;;;8.32;4.57;;;;;;;34.36;30.72;99626.44;5128710;27;20038;-31
2022/08/18 09:09:06;;;;;;;8.48;4.53;;;;;;;34.42;29.95;99627.63;5130005;27;20039;-31
2022/08/18 09:11:50;;;;;;;8.32;4.60;;;;;;;34.19;29.43;99621.66;5128493;27;20027;-29
2022/08/18 09:14:40;;;;;;;6.78;4.22;;;;;;;34.40;29.53;99621.69;5130011;27;20063;-29
2022/08/18 09:17:41;;;;;;;6.60;4.90;;;;;;;34.32;28.72;99614.56;5130036;27;20035;-30
2022/08/18 09:20:40;;;;;;;7.93;4.60;;;;;;;34.80;28.73;99616.28;5129973;27;20106;-29
2022/08/18 09:23:10;;;;;;;6.95;4.68;;;;;;;34.90;27.05;99604.41;5128434;27;20031;-32
2022/08/18 09:25:40;;;;;;;5.60;3.92;;;;;;;34.86;26.21;99611.13;5128386;27;20110;-30
2022/08/18 09:28:16;;;;;;;5.20;3.75;;;;;;;34.89;26.40;99596.50;5128348;27;20023;-28
2022/08/18 09:31:02;;;;;;;7.78;4.13;;;;;;;35.35;25.18;99617.84;5127526;27;20027;-30
2022/08/18 09:33:42;;;;;;;6.25;3.60;;;;;;;35.38;25.28;99612.31;5128702;27;20094;-31
2022/08/18 09:36:35;;;;;;;5.30;3.65;;;;;;;35.65;26.63;99603.56;5129520;27;20023;-32
2022/08/18 09:42:15;;;;;;;5.65;3.80;;;;;;;35.61;24.73;99609.13;5129661;27;20096;-33
2022/08/18 09:44:47;;;;;;;4.88;3.72;;;;;;;35.47;22.74;99608.34;5127630;27;20114;-34
2022/08/18 09:47:19;;;;;;;7.40;3.83;;;;;;;35.63;24.62;99599.59;5129538;27;20096;-28
2022/08/18 09:50:15;;;;;;;7.22;4.10;;;;;;;36.22;25.16;99591.47;5127708;27;20100;-29
2022/08/18 09:52:43;;;;;;;6.10;3.90;;;;;;;36.38;24.75;99594.53;5128614;27;20023;-32
2022/08/18 09:55:15;;;;;;;7.43;4.30;;;;;;;36.33;25.90;99586.66;5129164;27;20599;-32
2022/08/18 09:57:40;;;;;;;6.95;4.63;;;;;;;36.20;24.53;99593.84;5128924;27;20035;-29
2022/08/18 10:00:12;;;;;;;5.07;3.53;;;;;;;36.18;24.91;99585.94;5127859;27;20091;-33
2022/08/18 10:02:41;;;;;;;6.55;4.03;;;;;;;36.05;26.15;99597.88;5127437;27;20091;-29
2022/08/18 10:05:18;;;;;;;5.55;3.65;;;;;;;36.08;24.12;99572.09;5129130;27;20027;-31
2022/08/18 10:08:05;;;;;;;6.30;3.78;;;;;;;36.21;24.95;99584.34;5127342;27;20058;-34
2022/08/18 10:10:41;;;;;;;5.95;3.70;;;;;;;36.25;23.17;99576.78;5128827;27;20031;-31
2022/08/18 10:13:32;;;;;;;5.82;4.00;;;;;;;36.22;24.39;99574.03;5127619;27;20615;-31
2022/08/18 10:16:16;;;;;;;5.18;3.75;;;;;;;36.11;24.07;99568.50;5127252;27;20540;-32
2022/08/18 10:18:53;;;;;;;5.00;3.88;;;;;;;36.23;25.47;99562.53;5128676;27;20034;-34
2022/08/18 10:21:29;;;;;;;6.43;4.30;;;;;;;36.51;24.99;99563.53;5127222;27;20031;-29
2022/08/18 10:24:04;;;;;;;12.97;5.13;;;;;;;36.45;24.47;99570.69;5127463;27;20499;-31
2022/08/18 10:26:29;;;;;;;6.68;4.45;;;;;;;36.84;25.14;99569.63;5128377;27;20479;-34
2022/08/18 10:29:01;;;;;;;5.25;4.15;;;;;;;36.79;23.93;99568.88;5128467;27;20072;-32
2022/08/18 10:31:28;;;;;;;7.60;4.57;;;;;;;37.10;23.24;99579.34;5127101;27;20080;-32
2022/08/18 10:34:05;;;;;;;10.95;4.20;;;;;;;36.88;24.21;99570.41;5127171;27;20125;-36
2022/08/18 10:36:51;;;;;;;7.35;4.35;;;;;;;36.79;23.59;99568.09;5126985;27;20035;-31
2022/08/18 10:39:37;;;;;;;7.63;4.30;;;;;;;36.94;23.16;99565.97;5128247;27;20039;-35
2022/08/18 10:42:37;;;;;;;6.70;4.40;;;;;;;37.47;23.55;99561.91;5127551;27;20023;-29
2022/08/18 10:45:14;;;;;;;7.78;4.38;;;;;;;37.36;24.64;99569.59;5125840;27;20039;-29
2022/08/18 10:47:41;;;;;;;9.27;5.05;;;;;;;37.67;23.05;99569.66;5126496;27;20035;-30
2022/08/18 10:50:21;;;;;;;6.75;4.32;;;;;;;37.83;24.92;99564.28;5126555;27;20049;-31
2022/08/18 10:53:04;;;;;;;6.90;4.82;;;;;;;38.13;24.10;99563.53;5126891;27;20604;-33
2022/08/18 10:55:55;;;;;;;5.72;3.80;;;;;;;37.67;22.48;99555.75;5126931;27;20027;-31
2022/08/18 10:58:21;;;;;;;6.18;4.18;;;;;;;37.76;23.99;99553.25;5122661;27;20046;-33
2022/08/18 11:01:07;;;;;;;5.25;3.90;;;;;;;37.73;22.41;99545.75;5126920;27;20055;-29
2022/08/18 11:03:51;;;;;;;7.85;4.43;;;;;;;37.73;22.75;99548.53;5128038;27;20711;-31
2022/08/18 11:06:23;;;;;;;8.80;4.60;;;;;;;37.50;23.13;99538.84;5127627;27;20110;-34
2022/08/18 11:08:53;;;;;;;8.57;4.35;;;;;;;37.26;22.79;99539.91;5126639;27;20027;-29
2022/08/18 11:11:22;;;;;;;6.07;4.32;;;;;;;37.61;22.59;99535.16;5127984;27;20038;-31
2022/08/18 11:14:08;;;;;;;6.13;4.10;;;;;;;37.72;21.91;99531.03;5126270;27;20031;-31
2022/08/18 11:16:46;;;;;;;6.53;4.38;;;;;;;38.25;22.53;99534.31;5126022;27;20114;-29
2022/08/18 11:19:14;;;;;;;5.20;4.20;;;;;;;38.39;22.71;99536.91;5126486;27;20517;-31
2022/08/18 11:21:47;;;;;;;9.20;4.43;;;;;;;38.44;21.58;99530.06;5127802;27;20038;-29
2022/08/18 11:24:31;;;;;;;8.93;4.28;;;;;;;38.29;21.68;99523.94;5126493;28;20111;-30
2022/08/18 11:27:00;;;;;;;6.57;4.80;;;;;;;37.93;22.04;99531.97;5126319;28;20031;-29
2022/08/18 11:29:40;;;;;;;5.32;4.22;;;;;;;37.98;23.02;99528.69;5127909;27;20031;-29
2022/08/18 11:32:18;;;;;;;6.28;4.90;;;;;;;38.09;21.58;99518.25;5127777;27;20027;-30
2022/08/18 11:34:51;;;;;;;6.55;4.72;;;;;;;38.19;21.95;99522.09;5126197;28;20039;-32
2022/08/18 11:37:32;;;;;;;7.32;4.82;;;;;;;38.08;22.84;99516.66;5126247;27;20029;-33
2022/08/18 11:40:00;;;;;;;7.03;4.43;;;;;;;38.18;21.95;99498.22;5126631;27;20046;-29
2022/08/18 11:42:33;;;;;;;7.50;4.30;;;;;;;38.13;22.25;99512.63;5126052;28;20031;-29
2022/08/18 11:45:20;;;;;;;7.10;4.35;;;;;;;38.48;22.19;99518.84;5126464;27;20418;-33
2022/08/18 11:48:18;;;;;;;9.25;4.68;;;;;;;38.20;21.19;99512.50;5127485;27;20070;-29
2022/08/18 11:50:55;;;;;;;7.10;4.32;;;;;;;38.13;21.19;99515.41;5127646;27;20027;-30
2022/08/18 11:53:33;;;;;;;9.75;5.05;;;;;;;37.97;21.85;99510.44;5128008;27;20654;-28
2022/08/18 11:56:20;;;;;;;7.88;4.45;;;;;;;38.33;21.76;99507.94;5131990;27;20059;-31
2022/08/18 11:58:49;;;;;;;7.03;4.65;;;;;;;38.34;21.96;99500.38;5131544;27;20033;-29
2022/08/18 12:01:35;;;;;;;6.75;4.72;;;;;;;38.54;21.51;99498.47;5131460;27;20425;-29
2022/08/18 12:04:15;;;;;;;;;;;;;;;38.72;21.31;99495.38;5130399;27;20027;-30
2022/08/18 12:06:44;;;;;;;6.50;4.57;;;;;;;39.23;21.09;99488.88;5129326;27;19914;-29
2022/08/18 12:09:24;;;;;;;6.60;5.00;;;;;;;38.90;21.28;99485.91;5131192;27;20478;-30
2022/08/18 12:12:05;;;;;;;8.13;4.25;;;;;;;39.09;20.85;99485.19;5129795;27;20418;-30